createdAt,value
2018-02-22T00:01:49.548Z,5.43
2018-02-22T00:02:50.011Z,5.42
2018-02-22T00:03:50.468Z,5.41
2018-02-22T00:04:50.936Z,5.40
2018-02-22T00:05:51.402Z,5.40
2018-02-22T00:06:51.866Z,5.44
2018-02-22T00:07:52.325Z,5.44
2018-02-22T00:08:52.790Z,5.44
2018-02-22T00:09:53.256Z,5.44
2018-02-22T00:10:53.921Z,5.45
2018-02-22T00:11:54.187Z,5.45
2018-02-22T00:12:54.649Z,5.46
2018-02-22T00:13:55.110Z,5.44
2018-02-22T00:14:55.569Z,5.47
2018-02-22T00:15:56.037Z,5.44
2018-02-22T00:16:56.503Z,5.44
2018-02-22T00:18:57.422Z,5.44
2018-02-22T00:19:57.890Z,5.47
2018-02-22T00:20:58.355Z,5.45
2018-02-22T00:21:58.820Z,5.47
2018-02-22T00:22:59.284Z,5.45
2018-02-22T00:23:59.746Z,5.42
2018-02-22T00:25:00.212Z,5.44
2018-02-22T00:26:00.669Z,5.41
2018-02-22T00:28:01.602Z,5.45
2018-02-22T00:29:02.066Z,5.45
2018-02-22T00:30:02.530Z,5.46
2018-02-22T00:31:03.045Z,5.45
2018-02-22T00:32:03.477Z,5.44
2018-02-22T00:33:03.922Z,5.44
2018-02-22T00:34:04.387Z,5.44
2018-02-22T00:35:04.847Z,5.45
2018-02-22T00:36:05.312Z,5.44
2018-02-22T00:37:05.769Z,5.43
2018-02-22T00:38:06.242Z,5.43
2018-02-22T00:40:07.165Z,5.44
2018-02-22T00:41:07.632Z,5.42
2018-02-22T00:42:08.095Z,5.41
2018-02-22T00:43:08.556Z,5.41
2018-02-22T00:44:09.016Z,5.39
2018-02-22T00:45:09.488Z,5.39
2018-02-22T00:48:10.871Z,5.39
2018-02-22T00:49:11.341Z,5.38
2018-02-22T00:50:11.804Z,5.38
2018-02-22T00:51:12.470Z,5.39
2018-02-22T00:52:12.730Z,5.39
2018-02-22T00:53:13.196Z,5.37
2018-02-22T00:54:13.657Z,5.41
2018-02-22T00:55:14.117Z,5.39
2018-02-22T00:56:14.583Z,5.38
2018-02-22T00:57:15.049Z,5.40
2018-02-22T00:58:15.564Z,5.36
2018-02-22T00:59:15.971Z,5.35
2018-02-22T01:01:16.902Z,5.34
2018-02-22T01:02:17.370Z,5.33
2018-02-22T01:03:17.881Z,5.31
2018-02-22T01:04:18.294Z,5.32
2018-02-22T01:05:18.757Z,5.30
2018-02-22T01:06:19.215Z,5.30
2018-02-22T01:07:19.685Z,5.31
2018-02-22T01:08:20.150Z,5.29
2018-02-22T01:09:20.612Z,5.29
2018-02-22T01:10:21.071Z,5.30
2018-02-22T01:11:21.544Z,5.30
2018-02-22T01:12:22.003Z,5.30
2018-02-22T01:13:22.669Z,5.29
2018-02-22T01:14:23.333Z,5.30
2018-02-22T01:15:23.443Z,5.31
2018-02-22T01:16:23.856Z,5.30
2018-02-22T01:17:24.314Z,5.31
2018-02-22T01:18:24.990Z,5.31
2018-02-22T01:19:25.249Z,5.31
2018-02-22T01:20:25.710Z,5.28
2018-02-22T01:21:26.175Z,5.28
2018-02-22T01:22:26.635Z,5.27
2018-02-22T01:23:27.106Z,5.27
2018-02-22T01:25:28.029Z,5.25
2018-02-22T01:26:28.496Z,5.24
2018-02-22T01:27:28.958Z,5.26
2018-02-22T01:28:29.413Z,5.27
2018-02-22T01:29:29.884Z,5.26
2018-02-22T01:30:30.347Z,5.25
2018-02-22T01:31:30.810Z,5.25
2018-02-22T01:32:31.275Z,5.27
2018-02-22T01:33:31.739Z,5.26
2018-02-22T01:34:32.204Z,5.28
2018-02-22T01:35:32.661Z,5.27
2018-02-22T01:36:33.137Z,5.27
2018-02-22T01:37:33.593Z,5.25
2018-02-22T01:38:34.058Z,5.26
2018-02-22T01:39:34.514Z,5.27
2018-02-22T01:41:35.446Z,5.28
2018-02-22T01:42:35.912Z,5.28
2018-02-22T01:43:36.577Z,5.26
2018-02-22T01:44:36.838Z,5.26
2018-02-22T01:45:37.302Z,5.24
2018-02-22T01:46:37.759Z,5.24
2018-02-22T01:47:38.230Z,5.25
2018-02-22T01:48:38.745Z,5.26
2018-02-22T01:49:39.154Z,5.25
2018-02-22T01:50:39.613Z,5.27
2018-02-22T01:51:40.136Z,5.27
2018-02-22T01:52:40.545Z,5.25
2018-02-22T01:53:41.061Z,5.25
2018-02-22T01:54:41.474Z,5.25
2018-02-22T01:55:41.936Z,5.25
2018-02-22T01:56:42.398Z,5.26
2018-02-22T01:57:42.858Z,5.27
2018-02-22T01:58:43.326Z,5.27
2018-02-22T01:59:43.790Z,5.29
2018-02-22T02:00:44.261Z,5.28
2018-02-22T02:01:44.710Z,5.29
2018-02-22T02:02:45.181Z,5.28
2018-02-22T02:03:45.694Z,5.26
2018-02-22T02:04:46.114Z,5.25
2018-02-22T02:05:46.571Z,5.26
2018-02-22T02:07:47.497Z,5.23
2018-02-22T02:08:47.962Z,5.23
2018-02-22T02:09:48.424Z,5.22
2018-02-22T02:10:48.889Z,5.24
2018-02-22T02:11:49.353Z,5.20
2018-02-22T02:12:49.814Z,5.24
2018-02-22T02:13:50.278Z,5.19
2018-02-22T02:14:50.743Z,5.20
2018-02-22T02:15:51.208Z,5.20
2018-02-22T02:16:51.670Z,5.21
2018-02-22T02:17:52.134Z,5.22
2018-02-22T02:18:52.649Z,5.26
2018-02-22T02:19:53.257Z,5.26
2018-02-22T02:20:53.524Z,5.27
2018-02-22T02:21:53.988Z,5.24
2018-02-22T02:24:06.751Z,5.26
2018-02-22T02:25:55.841Z,5.26
2018-02-22T02:26:56.302Z,5.25
2018-02-22T02:29:57.694Z,5.21
2018-02-22T02:30:58.156Z,5.23
2018-02-22T02:31:58.624Z,5.24
2018-02-22T02:32:59.085Z,5.22
2018-02-22T02:33:59.598Z,5.24
2018-02-22T02:35:00.013Z,5.25
2018-02-22T02:36:00.476Z,5.22
2018-02-22T02:37:00.951Z,5.22
2018-02-22T02:38:01.396Z,5.24
2018-02-22T02:39:01.865Z,5.25
2018-02-22T02:41:02.792Z,5.26
2018-02-22T02:42:03.249Z,5.24
2018-02-22T02:43:03.721Z,5.26
2018-02-22T02:44:04.235Z,5.26
2018-02-22T02:45:04.648Z,5.25
2018-02-22T02:47:05.574Z,5.25
2018-02-22T02:48:06.040Z,5.28
2018-02-22T02:49:06.546Z,5.28
2018-02-22T02:50:06.965Z,5.27
2018-02-22T02:51:07.428Z,5.29
2018-02-22T02:52:07.895Z,5.29
2018-02-22T02:53:08.351Z,5.26
2018-02-22T02:54:20.805Z,5.25
2018-02-22T02:56:09.748Z,5.26
2018-02-22T02:57:10.209Z,5.26
2018-02-22T02:58:10.673Z,5.27
2018-02-22T02:59:11.138Z,5.27
2018-02-22T03:00:11.595Z,5.29
2018-02-22T03:01:12.060Z,5.29
2018-02-22T03:02:12.526Z,5.31
2018-02-22T03:03:12.990Z,5.29
2018-02-22T03:04:24.792Z,5.32
2018-02-22T03:05:13.916Z,5.30
2018-02-22T03:06:14.380Z,5.29
2018-02-22T03:07:14.849Z,5.27
2018-02-22T03:10:16.285Z,5.28
2018-02-22T03:11:16.692Z,5.27
2018-02-22T03:12:17.162Z,5.28
2018-02-22T03:13:17.826Z,5.28
2018-02-22T03:14:18.292Z,5.26
2018-02-22T03:15:18.603Z,5.30
2018-02-22T03:16:19.018Z,5.29
2018-02-22T03:17:19.477Z,5.29
2018-02-22T03:18:19.939Z,5.29
2018-02-22T03:19:20.405Z,5.27
2018-02-22T03:20:20.871Z,5.29
2018-02-22T03:21:21.332Z,5.27
2018-02-22T03:22:21.791Z,5.26
2018-02-22T03:23:22.259Z,5.25
2018-02-22T03:24:22.722Z,5.24
2018-02-22T03:25:23.183Z,5.23
2018-02-22T03:26:23.648Z,5.23
2018-02-22T03:28:24.577Z,5.20
2018-02-22T03:29:25.035Z,5.20
2018-02-22T03:30:25.554Z,5.22
2018-02-22T03:31:25.969Z,5.25
2018-02-22T03:32:26.430Z,5.25
2018-02-22T03:33:26.889Z,5.24
2018-02-22T03:34:27.358Z,5.19
2018-02-22T03:35:27.822Z,5.24
2018-02-22T03:36:28.286Z,5.22
2018-02-22T03:37:28.950Z,5.24
2018-02-22T03:38:29.211Z,5.23
2018-02-22T03:39:29.673Z,5.25
2018-02-22T03:40:30.132Z,5.24
2018-02-22T03:41:30.600Z,5.26
2018-02-22T03:42:31.064Z,5.28
2018-02-22T03:43:31.529Z,5.25
2018-02-22T03:44:31.988Z,5.26
2018-02-22T03:45:32.454Z,5.22
2018-02-22T03:46:32.918Z,5.25
2018-02-22T03:47:33.381Z,5.26
2018-02-22T03:48:33.846Z,5.28
2018-02-22T03:49:34.308Z,5.25
2018-02-22T03:50:34.773Z,5.25
2018-02-22T03:51:35.231Z,5.25
2018-02-22T03:52:35.698Z,5.24
2018-02-22T03:53:36.161Z,5.25
2018-02-22T03:55:37.140Z,5.25
2018-02-22T03:56:37.553Z,5.25
2018-02-22T03:57:38.018Z,5.27
2018-02-22T03:58:38.480Z,5.26
2018-02-22T03:59:38.944Z,5.27
2018-02-22T04:01:40.124Z,5.30
2018-02-22T04:02:40.329Z,5.30
2018-02-22T04:03:40.799Z,5.30
2018-02-22T04:05:41.724Z,5.30
2018-02-22T04:06:42.187Z,5.30
2018-02-22T04:07:42.651Z,5.29
2018-02-22T04:08:43.109Z,5.32
2018-02-22T04:09:43.576Z,5.29
2018-02-22T04:10:44.093Z,5.28
2018-02-22T04:11:44.497Z,5.26
2018-02-22T04:12:44.969Z,5.24
2018-02-22T04:13:45.431Z,5.23
2018-02-22T04:14:45.894Z,5.25
2018-02-22T04:16:46.824Z,5.25
2018-02-22T04:17:47.285Z,5.24
2018-02-22T04:18:47.751Z,5.25
2018-02-22T04:19:48.213Z,5.25
2018-02-22T04:20:48.678Z,5.27
2018-02-22T04:21:49.138Z,5.25
2018-02-22T04:22:49.598Z,5.28
2018-02-22T04:23:50.066Z,5.28
2018-02-22T04:24:50.530Z,5.25
2018-02-22T04:26:51.455Z,5.27
2018-02-22T04:27:51.919Z,5.25
2018-02-22T04:28:52.384Z,5.26
2018-02-22T04:30:53.308Z,5.28
2018-02-22T04:31:53.822Z,5.29
2018-02-22T04:32:54.239Z,5.29
2018-02-22T04:33:54.696Z,5.29
2018-02-22T04:34:55.164Z,5.27
2018-02-22T04:35:55.626Z,5.26
2018-02-22T04:36:56.095Z,5.23
2018-02-22T04:37:56.555Z,5.23
2018-02-22T04:38:57.019Z,5.25
2018-02-22T04:39:57.480Z,5.25
2018-02-22T04:40:57.944Z,5.25
2018-02-22T04:42:58.865Z,5.24
2018-02-22T04:43:59.335Z,5.23
2018-02-22T04:44:59.798Z,5.20
2018-02-22T04:46:00.260Z,5.23
2018-02-22T04:47:00.722Z,5.19
2018-02-22T04:48:01.191Z,5.20
2018-02-22T04:49:01.652Z,5.19
2018-02-22T04:50:02.115Z,5.18
2018-02-22T04:51:02.578Z,5.20
2018-02-22T04:52:03.042Z,5.17
2018-02-22T04:54:03.971Z,5.18
2018-02-22T04:55:04.427Z,5.17
2018-02-22T04:56:04.894Z,5.16
2018-02-22T04:58:05.823Z,5.17
2018-02-22T04:59:06.483Z,5.17
2018-02-22T05:00:06.752Z,5.18
2018-02-22T05:02:07.676Z,5.16
2018-02-22T05:03:08.137Z,5.16
2018-02-22T05:04:08.651Z,5.14
2018-02-22T05:05:09.066Z,5.13
2018-02-22T05:06:09.524Z,5.16
2018-02-22T05:07:09.993Z,5.15
2018-02-22T05:08:10.456Z,5.16
2018-02-22T05:09:10.923Z,5.16
2018-02-22T05:11:11.845Z,5.17
2018-02-22T05:12:12.311Z,5.15
2018-02-22T05:13:12.774Z,5.16
2018-02-22T05:14:13.241Z,5.14
2018-02-22T05:15:13.695Z,5.17
2018-02-22T05:16:14.162Z,5.13
2018-02-22T05:17:14.635Z,5.12
2018-02-22T05:18:15.089Z,5.14
2018-02-22T05:19:15.549Z,5.15
2018-02-22T05:20:16.016Z,5.16
2018-02-22T05:22:16.941Z,5.17
2018-02-22T05:23:17.401Z,5.16
2018-02-22T05:24:17.870Z,5.17
2018-02-22T05:25:18.334Z,5.15
2018-02-22T05:26:18.795Z,5.14
2018-02-22T05:27:19.310Z,5.14
2018-02-22T05:28:19.725Z,5.15
2018-02-22T05:29:20.204Z,5.15
2018-02-22T05:30:20.652Z,5.13
2018-02-22T05:31:21.115Z,5.16
2018-02-22T05:32:21.577Z,5.16
2018-02-22T05:33:22.034Z,5.16
2018-02-22T05:34:22.556Z,5.17
2018-02-22T05:35:22.967Z,5.19
2018-02-22T05:36:23.432Z,5.18
2018-02-22T05:37:23.944Z,5.18
2018-02-22T05:38:24.356Z,5.17
2018-02-22T05:39:24.818Z,5.18
2018-02-22T05:40:25.283Z,5.15
2018-02-22T05:41:25.745Z,5.17
2018-02-22T05:42:26.312Z,5.14
2018-02-22T05:43:26.669Z,5.16
2018-02-22T05:44:27.136Z,5.15
2018-02-22T05:45:27.600Z,5.15
2018-02-22T05:46:28.062Z,5.15
2018-02-22T05:47:28.525Z,5.14
2018-02-22T05:48:28.988Z,5.11
2018-02-22T05:49:29.452Z,5.08
2018-02-22T05:50:29.916Z,5.08
2018-02-22T05:51:30.379Z,5.07
2018-02-22T05:52:30.892Z,5.08
2018-02-22T05:53:31.305Z,5.08
2018-02-22T05:55:32.230Z,5.07
2018-02-22T05:56:32.693Z,5.06
2018-02-22T05:57:44.940Z,5.06
2018-02-22T05:58:33.626Z,5.04
2018-02-22T05:59:34.084Z,5.07
2018-02-22T06:00:34.547Z,5.07
2018-02-22T06:01:35.012Z,5.06
2018-02-22T06:05:36.864Z,5.08
2018-02-22T06:06:37.330Z,5.10
2018-02-22T06:07:37.835Z,5.11
2018-02-22T06:08:38.253Z,5.12
2018-02-22T06:09:38.716Z,5.15
2018-02-22T06:10:39.178Z,5.11
2018-02-22T06:11:39.646Z,5.11
2018-02-22T06:12:40.111Z,5.11
2018-02-22T06:14:41.027Z,5.06
2018-02-22T06:15:41.497Z,5.07
2018-02-22T06:16:41.961Z,5.10
2018-02-22T06:17:42.423Z,5.09
2018-02-22T06:18:42.888Z,5.10
2018-02-22T06:19:43.346Z,5.08
2018-02-22T06:20:43.811Z,5.10
2018-02-22T06:21:44.276Z,5.10
2018-02-22T06:22:44.789Z,5.13
2018-02-22T06:23:45.202Z,5.11
2018-02-22T06:24:45.667Z,5.12
2018-02-22T06:25:46.122Z,5.12
2018-02-22T06:26:46.591Z,5.13
2018-02-22T06:27:58.992Z,5.17
2018-02-22T06:28:47.517Z,5.13
2018-02-22T06:29:47.982Z,5.14
2018-02-22T06:32:49.366Z,5.13
2018-02-22T06:33:49.833Z,5.17
2018-02-22T06:34:50.296Z,5.16
2018-02-22T06:35:50.760Z,5.16
2018-02-22T06:36:51.223Z,5.18
2018-02-22T06:37:51.940Z,5.18
2018-02-22T06:39:52.612Z,5.19
2018-02-22T06:40:53.124Z,5.18
2018-02-22T06:41:53.544Z,5.20
2018-02-22T06:42:54.053Z,5.22
2018-02-22T06:43:54.470Z,5.21
2018-02-22T06:45:55.392Z,5.22
2018-02-22T06:46:55.856Z,5.24
2018-02-22T06:47:56.316Z,5.23
2018-02-22T06:48:56.783Z,5.24
2018-02-22T06:49:57.249Z,5.22
2018-02-22T06:50:57.708Z,5.24
2018-02-22T06:51:58.173Z,5.26
2018-02-22T06:52:58.686Z,5.26
2018-02-22T06:53:59.100Z,5.28
2018-02-22T06:54:59.563Z,5.28
2018-02-22T06:56:00.027Z,5.30
2018-02-22T06:57:00.488Z,5.33
2018-02-22T06:58:01.000Z,5.32
2018-02-22T06:59:01.416Z,5.30
2018-02-22T07:00:01.879Z,5.31
2018-02-22T07:01:02.343Z,5.31
2018-02-22T07:02:02.807Z,5.32
2018-02-22T07:03:03.268Z,5.32
2018-02-22T07:04:03.727Z,5.32
2018-02-22T07:05:04.197Z,5.34
2018-02-22T07:06:04.661Z,5.34
2018-02-22T07:07:05.122Z,5.35
2018-02-22T07:08:05.637Z,5.37
2018-02-22T07:09:06.051Z,5.39
2018-02-22T07:10:06.511Z,5.39
2018-02-22T07:11:06.981Z,5.42
2018-02-22T07:12:07.644Z,5.44
2018-02-22T07:13:07.950Z,5.46
2018-02-22T07:14:08.369Z,5.49
2018-02-22T07:15:08.830Z,5.50
2018-02-22T07:17:09.758Z,5.48
2018-02-22T07:18:10.222Z,5.52
2018-02-22T07:19:10.686Z,5.55
2018-02-22T07:20:11.142Z,5.58
2018-02-22T07:21:11.613Z,5.59
2018-02-22T07:22:12.076Z,5.61
2018-02-22T07:23:16.789Z,5.65
2018-02-22T07:24:12.998Z,5.66
2018-02-22T07:25:13.467Z,5.68
2018-02-22T07:26:13.932Z,5.69
2018-02-22T07:27:14.395Z,5.72
2018-02-22T07:29:15.324Z,5.81
2018-02-22T07:30:15.987Z,5.87
2018-02-22T07:31:16.242Z,5.96
2018-02-22T07:32:16.713Z,6.00
2018-02-22T07:33:17.226Z,6.05
2018-02-22T07:34:17.641Z,6.11
2018-02-22T07:35:18.097Z,6.20
2018-02-22T07:36:18.568Z,6.25
2018-02-22T07:37:19.027Z,6.33
2018-02-22T07:38:19.497Z,6.38
2018-02-22T07:39:19.959Z,6.43
2018-02-22T07:40:20.423Z,6.50
2018-02-22T07:41:20.888Z,6.55
2018-02-22T07:42:21.353Z,6.55
2018-02-22T07:43:21.816Z,6.61
2018-02-22T07:45:22.748Z,6.73
2018-02-22T07:46:23.210Z,6.77
2018-02-22T07:47:23.673Z,6.85
2018-02-22T07:48:24.131Z,6.90
2018-02-22T07:49:24.606Z,6.97
2018-02-22T07:50:25.068Z,7.04
2018-02-22T07:51:25.534Z,7.09
2018-02-22T07:52:25.999Z,7.15
2018-02-22T07:54:28.179Z,7.30
2018-02-22T07:55:27.385Z,7.34
2018-02-22T07:56:27.855Z,7.37
2018-02-22T07:57:28.321Z,7.43
2018-02-22T07:58:28.785Z,7.47
2018-02-22T07:59:29.293Z,7.52
2018-02-22T08:01:30.180Z,7.60
2018-02-22T08:04:31.577Z,7.72
2018-02-22T08:05:32.035Z,7.75
2018-02-22T08:06:32.508Z,7.78
2018-02-22T08:07:32.977Z,7.83
2018-02-22T08:08:33.439Z,7.88
2018-02-22T08:10:34.368Z,7.93
2018-02-22T08:11:34.832Z,7.97
2018-02-22T08:12:35.502Z,8.00
2018-02-22T08:13:35.765Z,8.03
2018-02-22T08:14:36.230Z,8.06
2018-02-22T08:15:36.698Z,8.08
2018-02-22T08:16:37.160Z,8.08
2018-02-22T08:17:37.629Z,8.10
2018-02-22T08:18:38.088Z,8.11
2018-02-22T08:19:38.763Z,8.13
2018-02-22T08:21:39.541Z,8.19
2018-02-22T08:22:39.957Z,8.24
2018-02-22T08:23:40.421Z,8.29
2018-02-22T08:24:40.889Z,8.34
2018-02-22T08:25:41.354Z,8.41
2018-02-22T08:26:41.871Z,8.47
2018-02-22T08:27:42.286Z,8.53
2018-02-22T08:28:42.747Z,8.60
2018-02-22T08:29:43.219Z,8.66
2018-02-22T08:30:43.685Z,8.73
2018-02-22T08:31:44.151Z,8.81
2018-02-22T08:32:44.618Z,8.85
2018-02-22T08:33:45.084Z,8.89
2018-02-22T08:34:45.553Z,8.95
2018-02-22T08:35:46.011Z,8.98
2018-02-22T08:36:46.535Z,9.02
2018-02-22T08:37:46.953Z,9.07
2018-02-22T08:38:47.421Z,9.09
2018-02-22T08:39:47.883Z,9.12
2018-02-22T08:40:48.354Z,9.15
2018-02-22T08:41:48.819Z,9.18
2018-02-22T08:43:49.955Z,9.23
2018-02-22T08:44:50.215Z,9.27
2018-02-22T08:45:50.688Z,9.30
2018-02-22T08:49:52.555Z,9.40
2018-02-22T08:50:53.024Z,9.42
2018-02-22T08:51:53.502Z,9.44
2018-02-22T08:52:54.008Z,9.49
2018-02-22T08:53:54.628Z,9.53
2018-02-22T08:54:54.893Z,9.55
2018-02-22T08:55:55.359Z,9.60
2018-02-22T08:56:55.827Z,9.63
2018-02-22T08:57:56.294Z,9.67
2018-02-22T08:58:56.763Z,9.69
2018-02-22T09:00:57.700Z,9.73
2018-02-22T09:01:58.167Z,9.77
2018-02-22T09:03:59.152Z,9.86
2018-02-22T09:04:59.569Z,9.90
2018-02-22T09:06:00.042Z,9.95
2018-02-22T09:07:00.506Z,9.98
2018-02-22T09:08:00.972Z,10.05
2018-02-22T09:10:01.908Z,10.16
2018-02-22T09:11:02.375Z,10.21
2018-02-22T09:12:03.042Z,10.25
2018-02-22T09:13:03.320Z,10.32
2018-02-22T09:14:15.168Z,10.38
2018-02-22T09:15:04.248Z,10.41
2018-02-22T09:16:04.712Z,10.43
2018-02-22T09:17:05.186Z,10.46
2018-02-22T09:19:06.122Z,10.52
2018-02-22T09:20:06.591Z,10.56
2018-02-22T09:21:07.059Z,10.58
2018-02-22T09:22:07.528Z,10.61
2018-02-22T09:23:07.993Z,10.63
2018-02-22T09:24:08.517Z,10.65
2018-02-22T09:25:08.935Z,10.68
2018-02-22T09:27:09.870Z,10.73
2018-02-22T09:28:10.341Z,10.76
2018-02-22T09:29:10.861Z,10.80
2018-02-22T09:30:11.279Z,10.80
2018-02-22T09:31:11.951Z,10.81
2018-02-22T09:32:12.216Z,10.79
2018-02-22T09:34:13.152Z,10.81
2018-02-22T09:35:13.625Z,10.82
2018-02-22T09:36:14.093Z,10.84
2018-02-22T09:37:14.564Z,10.84
2018-02-22T09:38:15.027Z,10.87
2018-02-22T09:39:27.131Z,10.87
2018-02-22T09:40:15.970Z,10.90
2018-02-22T09:41:16.438Z,10.91
2018-02-22T09:42:17.109Z,10.91
2018-02-22T09:44:29.379Z,10.95
2018-02-22T09:45:18.308Z,10.97
2018-02-22T09:46:18.784Z,10.98
2018-02-22T09:47:19.254Z,10.99
2018-02-22T09:48:19.723Z,11.01
2018-02-22T09:49:20.240Z,11.01
2018-02-22T09:50:20.673Z,11.03
2018-02-22T09:52:21.601Z,11.05
2018-02-22T09:53:22.069Z,11.06
2018-02-22T09:54:34.175Z,11.08
2018-02-22T09:55:23.012Z,11.08
2018-02-22T09:56:23.476Z,11.08
2018-02-22T09:58:24.416Z,11.10
2018-02-22T09:59:24.939Z,11.10
2018-02-22T10:00:25.357Z,11.13
2018-02-22T10:01:25.830Z,11.14
2018-02-22T10:03:26.765Z,11.16
2018-02-22T10:05:27.906Z,11.19
2018-02-22T10:06:28.173Z,11.21
2018-02-22T10:07:28.638Z,11.25
2018-02-22T10:09:29.580Z,11.29
2018-02-22T10:10:30.051Z,11.30
2018-02-22T10:11:30.528Z,11.31
2018-02-22T10:12:31.031Z,11.34
2018-02-22T10:13:31.460Z,11.33
2018-02-22T10:14:31.983Z,11.36
2018-02-22T10:15:32.400Z,11.35
2018-02-22T10:16:32.867Z,11.36
2018-02-22T10:17:33.338Z,11.35
2018-02-22T10:18:33.809Z,11.34
2018-02-22T10:20:34.749Z,11.34
2018-02-22T10:21:35.219Z,11.35
2018-02-22T10:22:35.689Z,11.36
2018-02-22T10:23:36.157Z,11.38
2018-02-22T10:24:36.678Z,11.39
2018-02-22T10:25:37.097Z,11.40
2018-02-22T10:26:37.568Z,11.40
2018-02-22T10:27:38.236Z,11.42
2018-02-22T10:28:38.509Z,11.44
2018-02-22T10:29:38.977Z,11.48
2018-02-22T10:30:39.657Z,11.50
2018-02-22T10:31:39.917Z,11.53
2018-02-22T10:32:40.388Z,11.56
2018-02-22T10:33:40.859Z,11.61
2018-02-22T10:35:41.796Z,11.75
2018-02-22T10:36:42.267Z,11.80
2018-02-22T10:37:42.736Z,11.86
2018-02-22T10:44:39.175Z,12.30
2018-02-22T10:45:39.591Z,12.32
2018-02-22T10:46:40.067Z,12.32
2018-02-22T10:47:40.528Z,12.33
2018-02-22T10:48:41.003Z,12.35
2018-02-22T10:49:41.475Z,12.38
2018-02-22T10:51:42.418Z,12.45
2018-02-22T10:52:42.886Z,12.47
2018-02-22T10:53:43.360Z,12.50
2018-02-22T10:54:43.823Z,12.51
2018-02-22T10:56:44.770Z,12.54
2018-02-22T10:57:45.443Z,12.56
2018-02-22T10:58:45.713Z,12.60
2018-02-22T11:00:46.658Z,12.66
2018-02-22T11:01:47.128Z,12.71
2018-02-22T11:02:47.595Z,12.75
2018-02-22T11:03:48.069Z,12.76
2018-02-22T11:05:49.014Z,12.79
2018-02-22T11:06:49.482Z,12.79
2018-02-22T11:07:49.953Z,12.81
2018-02-22T11:08:50.424Z,12.83
2018-02-22T11:10:02.533Z,12.86
2018-02-22T11:10:51.372Z,12.87
2018-02-22T11:11:51.836Z,12.87
2018-02-22T11:12:52.312Z,12.90
2018-02-22T11:14:53.297Z,12.94
2018-02-22T11:15:53.723Z,12.94
2018-02-22T11:16:54.195Z,12.97
2018-02-22T11:17:54.667Z,12.99
2018-02-22T11:18:55.340Z,13.02
2018-02-22T11:20:56.084Z,13.08
2018-02-22T11:21:56.550Z,13.10
2018-02-22T11:22:57.227Z,13.13
2018-02-22T11:23:57.497Z,13.15
2018-02-22T11:25:58.642Z,13.21
2018-02-22T11:26:58.911Z,13.23
2018-02-22T11:27:59.423Z,13.25
2018-02-22T11:28:59.852Z,13.29
2018-02-22T11:30:00.326Z,13.31
2018-02-22T11:31:12.487Z,13.33
2018-02-22T11:32:01.270Z,13.34
2018-02-22T11:33:01.745Z,13.36
2018-02-22T11:34:02.215Z,13.37
2018-02-22T11:35:02.687Z,13.39
2018-02-22T11:36:03.209Z,13.40
2018-02-22T11:37:03.629Z,13.41
2018-02-22T11:38:04.102Z,13.43
2018-02-22T11:39:04.573Z,13.46
2018-02-22T11:40:05.046Z,13.47
2018-02-22T11:41:05.769Z,13.48
2018-02-22T11:43:06.461Z,13.53
2018-02-22T11:45:07.406Z,13.60
2018-02-22T11:46:07.929Z,13.63
2018-02-22T11:47:08.350Z,13.67
2018-02-22T11:48:08.820Z,13.70
2018-02-22T11:49:09.293Z,13.72
2018-02-22T11:50:09.766Z,13.74
2018-02-22T11:51:10.290Z,13.76
2018-02-22T11:52:10.715Z,13.79
2018-02-22T11:53:11.183Z,13.80
2018-02-22T11:54:11.653Z,13.82
2018-02-22T11:55:12.130Z,13.85
2018-02-22T11:56:24.541Z,13.87
2018-02-22T11:57:13.067Z,13.87
2018-02-22T11:58:13.586Z,13.88
2018-02-22T11:59:14.016Z,13.89
2018-02-22T12:00:14.695Z,13.92
2018-02-22T12:01:15.214Z,13.93
2018-02-22T12:02:15.435Z,13.94
2018-02-22T12:03:15.908Z,13.93
2018-02-22T12:04:16.379Z,13.95
2018-02-22T12:05:16.854Z,13.94
2018-02-22T12:06:29.909Z,13.94
2018-02-22T12:07:17.798Z,13.93
2018-02-22T12:08:18.472Z,13.94
2018-02-22T12:09:18.743Z,13.96
2018-02-22T12:10:19.214Z,13.94
2018-02-22T12:11:19.768Z,13.95
2018-02-22T12:13:20.632Z,13.94
2018-02-22T12:14:21.109Z,13.94
2018-02-22T12:16:22.052Z,13.96
2018-02-22T12:17:22.524Z,13.95
2018-02-22T12:18:22.990Z,13.98
2018-02-22T12:19:23.473Z,13.98
2018-02-22T12:20:23.944Z,13.99
2018-02-22T12:22:24.888Z,14.02
2018-02-22T12:23:25.362Z,14.01
2018-02-22T12:25:26.306Z,14.03
2018-02-22T12:26:26.828Z,14.02
2018-02-22T12:28:27.726Z,14.05
2018-02-22T12:29:28.195Z,14.06
2018-02-22T12:30:28.671Z,14.06
2018-02-22T12:32:29.668Z,14.07
2018-02-22T12:33:30.090Z,14.06
2018-02-22T12:34:30.560Z,14.06
2018-02-22T12:35:31.239Z,14.08
2018-02-22T12:36:31.509Z,14.07
2018-02-22T12:40:33.395Z,14.05
2018-02-22T12:41:33.873Z,14.05
2018-02-22T12:42:34.347Z,14.06
2018-02-22T12:43:34.818Z,14.07
2018-02-22T12:44:35.292Z,14.07
2018-02-22T12:45:35.966Z,14.07
2018-02-22T12:46:36.237Z,14.07
2018-02-22T12:47:36.705Z,14.05
2018-02-22T12:48:37.185Z,14.06
2018-02-22T12:49:37.656Z,14.07
2018-02-22T12:50:38.129Z,14.07
2018-02-22T12:51:38.600Z,14.08
2018-02-22T12:52:39.076Z,14.09
2018-02-22T12:53:39.547Z,14.09
2018-02-22T12:54:40.021Z,14.10
2018-02-22T12:55:40.494Z,14.08
2018-02-22T12:56:40.969Z,14.07
2018-02-22T12:57:41.444Z,14.06
2018-02-22T12:58:41.913Z,14.04
2018-02-22T12:59:42.385Z,14.03
2018-02-22T13:00:42.860Z,14.03
2018-02-22T13:01:43.331Z,14.01
2018-02-22T13:03:44.329Z,14.01
2018-02-22T13:04:44.747Z,13.98
2018-02-22T13:05:45.227Z,13.94
2018-02-22T13:07:46.170Z,13.93
2018-02-22T13:08:46.643Z,13.92
2018-02-22T13:09:47.111Z,13.90
2018-02-22T13:11:48.062Z,13.89
2018-02-22T13:12:48.735Z,13.88
2018-02-22T13:14:49.480Z,13.84
2018-02-22T13:15:49.956Z,13.85
2018-02-22T13:16:50.421Z,13.85
2018-02-22T13:17:50.898Z,13.85
2018-02-22T13:18:51.771Z,13.83
2018-02-22T13:19:51.849Z,13.81
2018-02-22T13:20:52.319Z,13.79
2018-02-22T13:21:52.793Z,13.76
2018-02-22T13:22:53.259Z,13.73
2018-02-22T13:23:53.792Z,13.69
2018-02-22T13:24:54.211Z,13.67
2018-02-22T13:25:54.681Z,13.64
2018-02-22T13:26:55.154Z,13.64
2018-02-22T13:27:55.628Z,13.62
2018-02-22T13:28:56.096Z,13.61
2018-02-22T13:29:56.573Z,13.61
2018-02-22T13:30:57.047Z,13.59
2018-02-22T13:31:57.723Z,13.60
2018-02-22T13:32:57.993Z,13.60
2018-02-22T13:33:58.510Z,13.59
2018-02-22T13:34:58.938Z,13.58
2018-02-22T13:35:59.409Z,13.56
2018-02-22T13:36:59.884Z,13.55
2018-02-22T13:38:00.349Z,13.53
2018-02-22T13:39:01.030Z,13.53
2018-02-22T13:40:01.300Z,13.52
2018-02-22T13:41:01.774Z,13.51
2018-02-22T13:42:02.248Z,13.50
2018-02-22T13:43:02.719Z,13.49
2018-02-22T13:44:03.191Z,13.49
2018-02-22T13:45:03.665Z,13.47
2018-02-22T13:46:04.139Z,13.47
2018-02-22T13:47:04.610Z,13.46
2018-02-22T13:48:05.080Z,13.46
2018-02-22T13:49:17.345Z,13.45
2018-02-22T13:50:06.025Z,13.45
2018-02-22T13:51:06.501Z,13.42
2018-02-22T13:52:06.973Z,13.41
2018-02-22T13:53:07.445Z,13.40
2018-02-22T13:54:07.968Z,13.40
2018-02-22T13:55:08.390Z,13.40
2018-02-22T13:56:08.862Z,13.39
2018-02-22T13:57:09.336Z,13.38
2018-02-22T13:58:09.808Z,13.38
2018-02-22T13:59:10.527Z,13.37
2018-02-22T14:01:11.221Z,13.38
2018-02-22T14:02:11.698Z,13.38
2018-02-22T14:03:12.170Z,13.36
2018-02-22T14:05:13.117Z,13.33
2018-02-22T14:07:14.061Z,13.31
2018-02-22T14:08:14.532Z,13.31
2018-02-22T14:09:15.057Z,13.29
2018-02-22T14:10:15.478Z,13.29
2018-02-22T14:11:15.950Z,13.29
2018-02-22T14:12:16.424Z,13.27
2018-02-22T14:13:16.896Z,13.26
2018-02-22T14:14:17.362Z,13.24
2018-02-22T14:15:17.840Z,13.24
2018-02-22T14:16:18.312Z,13.23
2018-02-22T14:17:18.787Z,13.22
2018-02-22T14:18:19.260Z,13.19
2018-02-22T14:19:19.728Z,13.18
2018-02-22T14:20:20.203Z,13.18
2018-02-22T14:21:20.676Z,13.18
2018-02-22T14:22:21.148Z,13.17
2018-02-22T14:23:21.623Z,13.16
2018-02-22T14:24:22.091Z,13.14
2018-02-22T14:25:22.565Z,13.13
2018-02-22T14:26:23.033Z,13.11
2018-02-22T14:27:23.507Z,13.10
2018-02-22T14:28:23.983Z,13.09
2018-02-22T14:29:24.455Z,13.08
2018-02-22T14:30:24.917Z,13.08
2018-02-22T14:31:25.738Z,13.06
2018-02-22T14:33:26.345Z,13.06
2018-02-22T14:34:38.403Z,13.07
2018-02-22T14:35:27.285Z,13.06
2018-02-22T14:36:27.759Z,13.06
2018-02-22T14:37:28.231Z,13.06
2018-02-22T14:39:29.171Z,13.05
2018-02-22T14:40:29.651Z,13.05
2018-02-22T14:41:30.119Z,13.03
2018-02-22T14:42:30.588Z,13.03
2018-02-22T14:43:31.065Z,13.02
2018-02-22T14:45:32.054Z,13.02
2018-02-22T14:46:32.478Z,13.03
2018-02-22T14:47:32.954Z,13.01
2018-02-22T14:48:33.430Z,13.01
2018-02-22T14:50:34.370Z,13.02
2018-02-22T14:51:34.842Z,13.00
2018-02-22T14:52:35.313Z,13.02
2018-02-22T14:53:35.781Z,13.00
2018-02-22T14:54:36.514Z,12.99
2018-02-22T14:55:36.731Z,12.99
2018-02-22T14:56:37.405Z,12.97
2018-02-22T14:57:37.675Z,12.98
2018-02-22T14:58:38.141Z,12.97